createdAt,value
2022-11-25T00:01:44.688Z,5.67
2022-11-25T00:06:45.963Z,5.75
2022-11-25T00:11:47.259Z,5.51
2022-11-25T00:16:49.011Z,5.21
2022-11-25T00:21:50.344Z,5.28
2022-11-25T00:26:51.616Z,5.15
2022-11-25T00:31:52.883Z,5.07
2022-11-25T00:36:54.148Z,5.10
2022-11-25T00:42:14.244Z,5.15
2022-11-25T00:47:15.457Z,4.98
2022-11-25T00:52:16.712Z,4.52
2022-11-25T00:57:17.928Z,4.36
2022-11-25T01:02:19.190Z,4.43
2022-11-25T01:07:20.567Z,4.40
2022-11-25T01:12:21.848Z,4.26
2022-11-25T01:17:23.100Z,4.40
2022-11-25T01:22:24.352Z,4.34
2022-11-25T01:27:25.623Z,4.07
2022-11-25T01:32:26.821Z,4.17
2022-11-25T01:37:28.092Z,4.04
2022-11-25T01:42:29.312Z,4.18
2022-11-25T01:47:30.537Z,4.17
2022-11-25T01:52:31.771Z,4.11
2022-11-25T01:57:33.047Z,3.84
2022-11-25T02:02:34.410Z,3.77
2022-11-25T02:07:36.195Z,3.71
2022-11-25T02:12:38.659Z,3.78
2022-11-25T02:17:40.033Z,3.35
2022-11-25T02:22:41.253Z,3.50
2022-11-25T02:27:42.477Z,3.67
2022-11-25T02:32:44.004Z,3.89
2022-11-25T02:37:45.287Z,3.81
2022-11-25T02:42:46.593Z,4.13
2022-11-25T02:47:47.792Z,4.27
2022-11-25T02:52:49.125Z,4.40
2022-11-25T02:57:50.401Z,4.44
2022-11-25T03:02:51.613Z,4.48
2022-11-25T03:07:52.888Z,4.50
2022-11-25T03:12:54.201Z,4.63
2022-11-25T03:17:55.444Z,4.64
2022-11-25T03:22:56.693Z,4.63
2022-11-25T03:27:58.089Z,4.54
2022-11-25T03:32:59.344Z,4.58
2022-11-25T03:38:00.573Z,4.65
2022-11-25T03:43:01.866Z,4.52
2022-11-25T03:48:03.137Z,4.50
2022-11-25T03:53:04.381Z,4.35
2022-11-25T03:58:05.635Z,4.20
2022-11-25T04:03:06.895Z,4.11
2022-11-25T04:08:08.230Z,4.01
2022-11-25T04:13:09.505Z,4.09
2022-11-25T04:18:10.807Z,3.71
2022-11-25T04:23:12.272Z,3.68
2022-11-25T04:28:13.555Z,3.83
2022-11-25T04:33:14.773Z,3.55
2022-11-25T04:38:16.069Z,3.56
2022-11-25T04:43:17.405Z,3.48
2022-11-25T04:48:18.613Z,3.53
2022-11-25T04:53:19.851Z,3.48
2022-11-25T04:58:41.086Z,3.91
2022-11-25T05:03:48.067Z,3.77
2022-11-25T05:08:50.927Z,3.76
2022-11-25T05:13:52.136Z,3.57
2022-11-25T05:18:53.392Z,3.27
2022-11-25T05:23:56.100Z,3.13
2022-11-25T05:28:57.564Z,3.31
2022-11-25T05:33:58.906Z,3.36
2022-11-25T05:39:00.157Z,3.40
2022-11-25T05:44:01.538Z,3.48
2022-11-25T05:49:02.793Z,3.47
2022-11-25T05:54:04.041Z,3.60
2022-11-25T05:59:05.393Z,3.53
2022-11-25T06:04:06.889Z,3.94
2022-11-25T06:09:08.178Z,3.74
2022-11-25T06:14:09.790Z,3.59
2022-11-25T06:19:11.026Z,3.70
2022-11-25T06:24:12.303Z,3.68
2022-11-25T06:29:13.522Z,3.44
2022-11-25T06:34:14.724Z,3.45
2022-11-25T06:39:16.116Z,3.69
2022-11-25T06:44:17.404Z,3.79
2022-11-25T06:49:18.627Z,3.79
2022-11-25T06:54:19.935Z,3.58
2022-11-25T06:59:21.174Z,3.76
2022-11-25T07:04:22.411Z,3.69
2022-11-25T07:09:24.991Z,3.90
2022-11-25T07:14:26.269Z,3.65
2022-11-25T07:19:27.540Z,3.87
2022-11-25T07:24:28.795Z,4.08
2022-11-25T07:29:54.242Z,4.25
2022-11-25T07:34:52.036Z,4.12
2022-11-25T07:39:53.227Z,3.88
2022-11-25T07:44:54.463Z,3.90
2022-11-25T07:49:55.797Z,3.83
2022-11-25T07:54:56.997Z,3.80
2022-11-25T07:59:58.261Z,4.00
2022-11-25T08:04:59.546Z,4.21
2022-11-25T08:10:00.783Z,4.73
2022-11-25T08:15:02.024Z,4.47
2022-11-25T08:20:03.557Z,4.43
2022-11-25T08:25:04.877Z,4.30
2022-11-25T08:30:06.119Z,4.40
2022-11-25T08:35:07.382Z,4.40
2022-11-25T08:40:08.661Z,4.56
2022-11-25T08:45:10.976Z,4.51
2022-11-25T08:50:12.989Z,4.45
2022-11-25T08:55:14.281Z,4.59
2022-11-25T09:00:15.502Z,4.83
2022-11-25T09:05:16.843Z,4.72
2022-11-25T09:10:18.133Z,4.85
2022-11-25T09:15:19.476Z,4.86
2022-11-25T09:20:20.841Z,4.74
2022-11-25T09:25:22.253Z,4.57
2022-11-25T09:30:23.527Z,4.86
2022-11-25T09:35:24.768Z,5.13
2022-11-25T09:40:26.242Z,5.06
2022-11-25T09:45:46.442Z,5.19
2022-11-25T09:50:47.706Z,5.43
2022-11-25T09:55:49.020Z,5.24
2022-11-25T10:00:50.276Z,5.17
2022-11-25T10:05:52.961Z,5.09
2022-11-25T10:10:54.343Z,4.99
2022-11-25T10:15:55.677Z,4.84
2022-11-25T10:20:56.985Z,4.58
2022-11-25T10:25:58.267Z,4.66
2022-11-25T10:30:59.667Z,4.35
2022-11-25T10:36:00.972Z,4.36
2022-11-25T10:41:02.185Z,4.44
2022-11-25T10:46:03.660Z,4.93
2022-11-25T10:51:04.983Z,5.29
2022-11-25T10:56:06.296Z,5.43
2022-11-25T11:01:07.558Z,5.57
2022-11-25T11:06:08.851Z,5.91
2022-11-25T11:11:11.237Z,6.25
2022-11-25T11:16:12.589Z,6.14
2022-11-25T11:21:13.947Z,6.28
2022-11-25T11:26:15.228Z,6.31
2022-11-25T11:31:17.452Z,6.28
2022-11-25T11:36:18.870Z,6.23
2022-11-25T11:41:20.137Z,6.05
2022-11-25T11:46:21.402Z,5.95
2022-11-25T11:51:22.665Z,5.89
2022-11-25T11:56:39.309Z,6.11
2022-11-25T12:01:40.655Z,5.88
2022-11-25T12:06:41.960Z,6.19
2022-11-25T12:11:43.269Z,6.12
2022-11-25T12:16:44.552Z,6.36
2022-11-25T12:21:45.850Z,6.49
2022-11-25T12:26:47.113Z,6.79
2022-11-25T12:31:48.409Z,6.61
2022-11-25T12:36:49.719Z,6.89
2022-11-25T12:41:51.006Z,7.26
2022-11-25T12:46:52.340Z,7.25
2022-11-25T12:51:53.663Z,7.32
2022-11-25T12:56:54.908Z,7.12
2022-11-25T13:01:56.367Z,7.03
2022-11-25T13:06:57.718Z,7.14
2022-11-25T13:11:59.797Z,7.01
2022-11-25T13:17:01.891Z,7.17
2022-11-25T13:22:04.356Z,7.32
2022-11-25T13:27:06.094Z,7.15
2022-11-25T13:32:07.433Z,7.35
2022-11-25T13:37:08.802Z,7.54
2022-11-25T13:42:10.100Z,7.63
2022-11-25T13:47:11.386Z,7.65
2022-11-25T13:52:12.632Z,7.65
2022-11-25T13:57:13.965Z,7.79
2022-11-25T14:02:15.331Z,7.69
2022-11-25T14:07:19.985Z,7.14
2022-11-25T14:12:21.687Z,7.28
2022-11-25T14:17:23.032Z,6.94
2022-11-25T14:22:24.374Z,7.34
2022-11-25T14:27:25.585Z,7.08
2022-11-25T14:32:26.862Z,7.01
2022-11-25T14:37:28.135Z,7.38
2022-11-25T14:42:29.422Z,7.58
2022-11-25T14:47:34.593Z,7.53
2022-11-25T14:52:40.515Z,7.48
2022-11-25T14:57:42.136Z,7.68
2022-11-25T15:02:43.634Z,7.71
2022-11-25T15:07:44.934Z,7.86
2022-11-25T15:12:50.038Z,7.85
2022-11-25T15:17:55.194Z,7.82
2022-11-25T15:22:56.577Z,7.96
2022-11-25T15:27:58.425Z,7.93
2022-11-25T15:32:59.862Z,8.03
2022-11-25T15:38:01.083Z,7.82
2022-11-25T15:43:02.356Z,7.80
2022-11-25T15:48:03.576Z,7.83
2022-11-25T15:53:04.832Z,7.65
2022-11-25T15:58:06.102Z,7.13
2022-11-25T16:03:07.590Z,7.39
2022-11-25T16:08:08.833Z,7.47
2022-11-25T16:13:10.294Z,7.44
2022-11-25T16:18:38.612Z,7.48
2022-11-25T16:23:32.851Z,7.71
2022-11-25T16:28:34.101Z,7.74
2022-11-25T16:33:35.318Z,7.67
2022-11-25T16:38:36.582Z,7.64
2022-11-25T16:43:40.057Z,7.68
2022-11-25T16:48:41.325Z,7.54
2022-11-25T16:53:43.537Z,7.44
2022-11-25T16:58:44.826Z,7.45
2022-11-25T17:03:46.079Z,7.32
2022-11-25T17:08:47.299Z,7.19
2022-11-25T17:13:51.653Z,6.97
2022-11-25T17:18:52.904Z,6.70
2022-11-25T17:23:55.427Z,6.52
2022-11-25T17:28:56.834Z,6.60
2022-11-25T17:33:58.061Z,6.89
2022-11-25T17:38:59.406Z,6.94
2022-11-25T17:44:00.658Z,7.13
2022-11-25T17:49:01.904Z,7.27
2022-11-25T17:54:03.150Z,7.20
2022-11-25T17:59:04.410Z,7.22
2022-11-25T18:04:05.664Z,7.40
2022-11-25T18:09:06.928Z,7.40
2022-11-25T18:14:08.246Z,7.63
2022-11-25T18:19:10.240Z,7.63
2022-11-25T18:24:11.493Z,7.23
2022-11-25T18:29:12.734Z,6.80
2022-11-25T18:34:13.935Z,6.80
2022-11-25T18:39:15.149Z,6.80
2022-11-25T18:44:16.352Z,7.31
2022-11-25T18:49:17.626Z,7.36
2022-11-25T18:54:18.981Z,7.39
2022-11-25T18:59:20.294Z,7.55
2022-11-25T19:04:21.753Z,7.55
2022-11-25T19:09:23.195Z,7.28
2022-11-25T19:14:26.099Z,6.94
2022-11-25T19:19:27.507Z,7.38
2022-11-25T19:24:29.133Z,7.18
2022-11-25T19:29:30.468Z,7.23
2022-11-25T19:34:31.880Z,7.22
2022-11-25T19:39:33.160Z,7.04
2022-11-25T19:44:34.586Z,6.61
2022-11-25T19:49:36.042Z,6.84
2022-11-25T19:54:37.540Z,6.86
2022-11-25T19:59:39.057Z,7.12
2022-11-25T20:04:42.523Z,7.59
2022-11-25T20:09:44.130Z,7.71
2022-11-25T20:14:45.418Z,7.75
2022-11-25T20:19:46.633Z,7.93
2022-11-25T20:24:47.856Z,7.85
2022-11-25T20:29:49.093Z,7.60
2022-11-25T20:34:50.469Z,7.65
2022-11-25T20:39:51.953Z,7.39
2022-11-25T20:44:57.317Z,7.54
2022-11-25T20:49:59.142Z,7.61
2022-11-25T20:55:04.428Z,7.79
2022-11-25T21:00:05.724Z,7.49
2022-11-25T21:05:07.086Z,7.76
2022-11-25T21:10:08.462Z,7.76
2022-11-25T21:15:10.206Z,7.68
2022-11-25T21:20:11.531Z,7.49
2022-11-25T21:25:14.137Z,7.33
2022-11-25T21:30:15.454Z,7.50
2022-11-25T21:35:16.839Z,7.39
2022-11-25T21:40:18.069Z,7.39
2022-11-25T21:45:19.383Z,7.41
2022-11-25T21:50:20.788Z,7.35
2022-11-25T21:55:22.037Z,7.30
2022-11-25T22:00:23.268Z,7.05
2022-11-25T22:05:27.681Z,6.98
2022-11-25T22:10:29.042Z,6.83
2022-11-25T22:15:30.445Z,6.97
2022-11-25T22:20:33.495Z,7.10
2022-11-25T22:25:34.714Z,7.23
2022-11-25T22:30:36.060Z,7.16
2022-11-25T22:35:37.351Z,6.89
2022-11-25T22:40:38.716Z,6.79
2022-11-25T22:45:40.015Z,6.85
2022-11-25T22:50:41.270Z,6.84
2022-11-25T22:55:42.621Z,6.81
2022-11-25T23:00:45.230Z,6.95
2022-11-25T23:05:46.501Z,7.13
2022-11-25T23:10:48.287Z,7.24
2022-11-25T23:15:49.655Z,7.05
2022-11-25T23:20:50.881Z,7.31
2022-11-25T23:25:52.234Z,7.50
2022-11-25T23:30:53.526Z,7.52
2022-11-25T23:35:54.729Z,7.41
2022-11-25T23:40:55.999Z,7.28
2022-11-25T23:45:57.287Z,7.35
2022-11-25T23:50:58.629Z,7.50
2022-11-25T23:55:59.956Z,7.83
